sensor_id;sensor_type;location;lat;lon;timestamp;P1;durP1;ratioP1;P2;durP2;ratioP2
26038;SDS011;13815;52.374;4.882;2023-08-20T00:01:56;30.60;;;13.05;;
26038;SDS011;13815;52.374;4.882;2023-08-20T00:04:24;15.75;;;11.82;;
26038;SDS011;13815;52.374;4.882;2023-08-20T00:06:54;12.10;;;11.27;;
26038;SDS011;13815;52.374;4.882;2023-08-20T00:09:22;22.35;;;11.68;;
26038;SDS011;13815;52.374;4.882;2023-08-20T00:11:49;34.33;;;12.77;;
26038;SDS011;13815;52.374;4.882;2023-08-20T00:14:15;17.63;;;11.93;;
26038;SDS011;13815;52.374;4.882;2023-08-20T00:16:42;23.45;;;12.65;;
26038;SDS011;13815;52.374;4.882;2023-08-20T00:19:08;19.10;;;12.00;;
26038;SDS011;13815;52.374;4.882;2023-08-20T00:21:34;65.82;;;14.45;;
26038;SDS011;13815;52.374;4.882;2023-08-20T00:24:00;16.10;;;11.45;;
26038;SDS011;13815;52.374;4.882;2023-08-20T00:26:26;33.58;;;12.98;;
26038;SDS011;13815;52.374;4.882;2023-08-20T00:28:51;28.80;;;12.30;;
26038;SDS011;13815;52.374;4.882;2023-08-20T00:31:17;14.95;;;10.52;;
26038;SDS011;13815;52.374;4.882;2023-08-20T00:33:42;11.73;;;10.30;;
26038;SDS011;13815;52.374;4.882;2023-08-20T00:36:08;40.10;;;12.35;;
26038;SDS011;13815;52.374;4.882;2023-08-20T00:38:33;72.28;;;14.40;;
26038;SDS011;13815;52.374;4.882;2023-08-20T00:40:59;13.38;;;11.70;;
26038;SDS011;13815;52.374;4.882;2023-08-20T00:43:24;33.97;;;12.40;;
26038;SDS011;13815;52.374;4.882;2023-08-20T00:45:50;39.92;;;13.40;;
26038;SDS011;13815;52.374;4.882;2023-08-20T00:48:16;26.65;;;12.35;;
26038;SDS011;13815;52.374;4.882;2023-08-20T00:50:42;26.60;;;11.38;;
26038;SDS011;13815;52.374;4.882;2023-08-20T00:53:07;36.85;;;11.95;;
26038;SDS011;13815;52.374;4.882;2023-08-20T00:55:33;25.88;;;10.68;;
26038;SDS011;13815;52.374;4.882;2023-08-20T00:57:59;26.08;;;10.43;;
26038;SDS011;13815;52.374;4.882;2023-08-20T01:00:25;31.67;;;9.75;;
26038;SDS011;13815;52.374;4.882;2023-08-20T01:02:50;17.60;;;8.73;;
26038;SDS011;13815;52.374;4.882;2023-08-20T01:05:16;8.20;;;7.82;;
26038;SDS011;13815;52.374;4.882;2023-08-20T01:13:00;14.75;;;8.30;;
26038;SDS011;13815;52.374;4.882;2023-08-20T01:15:29;25.80;;;8.93;;
26038;SDS011;13815;52.374;4.882;2023-08-20T01:17:54;44.42;;;9.45;;
26038;SDS011;13815;52.374;4.882;2023-08-20T01:20:20;14.77;;;7.07;;
26038;SDS011;13815;52.374;4.882;2023-08-20T01:23:13;7.32;;;6.10;;
26038;SDS011;13815;52.374;4.882;2023-08-20T01:26:07;13.65;;;6.15;;
26038;SDS011;13815;52.374;4.882;2023-08-20T01:28:43;24.70;;;6.05;;
26038;SDS011;13815;52.374;4.882;2023-08-20T01:31:08;17.92;;;5.65;;
26038;SDS011;13815;52.374;4.882;2023-08-20T01:33:34;8.27;;;4.75;;
26038;SDS011;13815;52.374;4.882;2023-08-20T01:36:00;23.67;;;5.68;;
26038;SDS011;13815;52.374;4.882;2023-08-20T01:38:34;37.22;;;6.53;;
26038;SDS011;13815;52.374;4.882;2023-08-20T01:41:00;9.98;;;4.65;;
26038;SDS011;13815;52.374;4.882;2023-08-20T01:43:26;23.80;;;4.93;;
26038;SDS011;13815;52.374;4.882;2023-08-20T01:45:51;41.28;;;5.55;;
26038;SDS011;13815;52.374;4.882;2023-08-20T01:48:16;12.63;;;3.88;;
26038;SDS011;13815;52.374;4.882;2023-08-20T01:50:42;5.25;;;3.28;;
26038;SDS011;13815;52.374;4.882;2023-08-20T01:53:07;24.90;;;4.45;;
26038;SDS011;13815;52.374;4.882;2023-08-20T01:55:33;10.68;;;3.40;;
26038;SDS011;13815;52.374;4.882;2023-08-20T01:57:59;6.70;;;3.30;;
26038;SDS011;13815;52.374;4.882;2023-08-20T02:00:25;26.80;;;4.45;;
26038;SDS011;13815;52.374;4.882;2023-08-20T02:02:53;21.02;;;3.95;;
26038;SDS011;13815;52.374;4.882;2023-08-20T02:05:19;3.22;;;2.72;;
26038;SDS011;13815;52.374;4.882;2023-08-20T02:07:44;9.82;;;3.00;;
26038;SDS011;13815;52.374;4.882;2023-08-20T02:10:12;56.90;;;5.97;;
26038;SDS011;13815;52.374;4.882;2023-08-20T02:12:38;28.65;;;3.75;;
26038;SDS011;13815;52.374;4.882;2023-08-20T02:15:05;14.32;;;3.08;;
26038;SDS011;13815;52.374;4.882;2023-08-20T02:17:30;5.40;;;2.33;;
26038;SDS011;13815;52.374;4.882;2023-08-20T02:19:56;29.27;;;3.97;;
26038;SDS011;13815;52.374;4.882;2023-08-20T02:24:54;6.20;;;1.80;;
26038;SDS011;13815;52.374;4.882;2023-08-20T02:27:20;3.28;;;1.35;;
26038;SDS011;13815;52.374;4.882;2023-08-20T02:29:45;3.63;;;1.33;;
26038;SDS011;13815;52.374;4.882;2023-08-20T02:32:11;15.98;;;1.98;;
26038;SDS011;13815;52.374;4.882;2023-08-20T02:34:36;18.45;;;2.53;;
26038;SDS011;13815;52.374;4.882;2023-08-20T02:37:01;18.90;;;2.38;;
26038;SDS011;13815;52.374;4.882;2023-08-20T02:39:27;11.35;;;1.83;;
26038;SDS011;13815;52.374;4.882;2023-08-20T02:41:52;21.02;;;2.38;;
26038;SDS011;13815;52.374;4.882;2023-08-20T02:44:18;14.82;;;1.85;;
26038;SDS011;13815;52.374;4.882;2023-08-20T02:46:43;18.75;;;2.13;;
26038;SDS011;13815;52.374;4.882;2023-08-20T02:49:09;11.75;;;1.83;;
26038;SDS011;13815;52.374;4.882;2023-08-20T02:51:35;19.02;;;2.10;;
26038;SDS011;13815;52.374;4.882;2023-08-20T02:54:01;25.23;;;2.50;;
26038;SDS011;13815;52.374;4.882;2023-08-20T02:56:26;10.77;;;1.58;;
26038;SDS011;13815;52.374;4.882;2023-08-20T02:58:52;20.20;;;2.03;;
26038;SDS011;13815;52.374;4.882;2023-08-20T03:01:22;28.40;;;2.08;;
26038;SDS011;13815;52.374;4.882;2023-08-20T03:03:48;42.35;;;3.13;;
26038;SDS011;13815;52.374;4.882;2023-08-20T03:06:14;24.05;;;2.03;;
26038;SDS011;13815;52.374;4.882;2023-08-20T03:08:40;22.08;;;1.48;;
26038;SDS011;13815;52.374;4.882;2023-08-20T03:11:05;27.77;;;1.88;;
26038;SDS011;13815;52.374;4.882;2023-08-20T03:13:31;25.95;;;1.90;;
26038;SDS011;13815;52.374;4.882;2023-08-20T03:15:57;5.95;;;0.63;;
26038;SDS011;13815;52.374;4.882;2023-08-20T03:18:22;5.60;;;0.63;;
26038;SDS011;13815;52.374;4.882;2023-08-20T03:20:48;5.60;;;0.52;;
26038;SDS011;13815;52.374;4.882;2023-08-20T03:23:13;5.07;;;0.52;;
26038;SDS011;13815;52.374;4.882;2023-08-20T03:25:38;21.83;;;1.35;;
26038;SDS011;13815;52.374;4.882;2023-08-20T03:28:04;19.98;;;1.27;;
26038;SDS011;13815;52.374;4.882;2023-08-20T03:30:30;3.35;;;0.30;;
26038;SDS011;13815;52.374;4.882;2023-08-20T03:32:56;20.55;;;1.20;;
26038;SDS011;13815;52.374;4.882;2023-08-20T03:35:22;21.20;;;1.23;;
26038;SDS011;13815;52.374;4.882;2023-08-20T03:37:47;15.75;;;1.05;;
26038;SDS011;13815;52.374;4.882;2023-08-20T03:40:13;8.48;;;0.60;;
26038;SDS011;13815;52.374;4.882;2023-08-20T03:42:39;54.50;;;3.38;;
26038;SDS011;13815;52.374;4.882;2023-08-20T03:45:05;1.45;;;0.10;;
26038;SDS011;13815;52.374;4.882;2023-08-20T03:47:31;10.77;;;0.70;;
26038;SDS011;13815;52.374;4.882;2023-08-20T03:49:56;15.25;;;0.85;;
26038;SDS011;13815;52.374;4.882;2023-08-20T03:52:24;10.85;;;0.65;;
26038;SDS011;13815;52.374;4.882;2023-08-20T03:54:50;14.55;;;0.93;;
26038;SDS011;13815;52.374;4.882;2023-08-20T03:57:15;5.95;;;0.38;;
26038;SDS011;13815;52.374;4.882;2023-08-20T03:59:44;16.13;;;0.90;;
26038;SDS011;13815;52.374;4.882;2023-08-20T04:02:10;22.00;;;1.17;;
26038;SDS011;13815;52.374;4.882;2023-08-20T04:04:39;15.23;;;0.88;;
26038;SDS011;13815;52.374;4.882;2023-08-20T04:07:04;4.70;;;0.30;;
26038;SDS011;13815;52.374;4.882;2023-08-20T04:09:31;12.95;;;0.88;;
26038;SDS011;13815;52.374;4.882;2023-08-20T04:11:57;17.23;;;1.08;;
26038;SDS011;13815;52.374;4.882;2023-08-20T04:14:23;3.67;;;0.25;;
26038;SDS011;13815;52.374;4.882;2023-08-20T04:16:51;6.72;;;0.40;;
26038;SDS011;13815;52.374;4.882;2023-08-20T04:19:16;23.75;;;1.45;;
26038;SDS011;13815;52.374;4.882;2023-08-20T04:21:42;14.18;;;0.85;;
26038;SDS011;13815;52.374;4.882;2023-08-20T04:24:07;15.57;;;1.00;;
26038;SDS011;13815;52.374;4.882;2023-08-20T04:26:32;11.27;;;0.75;;
26038;SDS011;13815;52.374;4.882;2023-08-20T04:28:58;10.90;;;0.75;;
26038;SDS011;13815;52.374;4.882;2023-08-20T04:31:23;11.00;;;0.75;;
26038;SDS011;13815;52.374;4.882;2023-08-20T04:33:49;24.70;;;1.42;;
26038;SDS011;13815;52.374;4.882;2023-08-20T04:36:15;26.52;;;1.50;;
26038;SDS011;13815;52.374;4.882;2023-08-20T04:38:40;5.07;;;0.32;;
26038;SDS011;13815;52.374;4.882;2023-08-20T04:41:05;44.58;;;2.75;;
26038;SDS011;13815;52.374;4.882;2023-08-20T04:43:31;20.80;;;1.13;;
26038;SDS011;13815;52.374;4.882;2023-08-20T04:45:56;10.07;;;0.63;;
26038;SDS011;13815;52.374;4.882;2023-08-20T04:48:22;17.63;;;0.98;;
26038;SDS011;13815;52.374;4.882;2023-08-20T04:53:20;34.17;;;2.10;;
26038;SDS011;13815;52.374;4.882;2023-08-20T04:55:45;1.15;;;0.03;;
26038;SDS011;13815;52.374;4.882;2023-08-20T04:58:11;13.02;;;0.80;;
26038;SDS011;13815;52.374;4.882;2023-08-20T05:00:36;24.20;;;1.38;;
26038;SDS011;13815;52.374;4.882;2023-08-20T05:03:05;35.42;;;2.28;;
26038;SDS011;13815;52.374;4.882;2023-08-20T05:05:30;7.65;;;0.47;;
26038;SDS011;13815;52.374;4.882;2023-08-20T05:07:55;28.55;;;1.65;;
26038;SDS011;13815;52.374;4.882;2023-08-20T05:10:21;4.32;;;0.28;;
26038;SDS011;13815;52.374;4.882;2023-08-20T05:12:47;10.90;;;0.77;;
26038;SDS011;13815;52.374;4.882;2023-08-20T05:15:12;21.20;;;1.20;;
26038;SDS011;13815;52.374;4.882;2023-08-20T05:17:37;14.60;;;0.77;;
26038;SDS011;13815;52.374;4.882;2023-08-20T05:20:04;36.17;;;2.30;;
26038;SDS011;13815;52.374;4.882;2023-08-20T05:22:30;8.10;;;0.55;;
26038;SDS011;13815;52.374;4.882;2023-08-20T05:24:55;17.35;;;0.98;;
26038;SDS011;13815;52.374;4.882;2023-08-20T05:27:21;1.65;;;0.13;;
26038;SDS011;13815;52.374;4.882;2023-08-20T05:29:46;24.92;;;1.65;;
26038;SDS011;13815;52.374;4.882;2023-08-20T05:32:12;10.95;;;0.65;;
26038;SDS011;13815;52.374;4.882;2023-08-20T05:34:38;41.00;;;2.45;;
26038;SDS011;13815;52.374;4.882;2023-08-20T05:37:03;25.67;;;1.67;;
26038;SDS011;13815;52.374;4.882;2023-08-20T05:39:40;8.27;;;0.57;;
26038;SDS011;13815;52.374;4.882;2023-08-20T05:42:06;9.18;;;0.63;;
26038;SDS011;13815;52.374;4.882;2023-08-20T05:44:32;11.68;;;0.63;;
26038;SDS011;13815;52.374;4.882;2023-08-20T05:47:00;18.20;;;1.05;;
26038;SDS011;13815;52.374;4.882;2023-08-20T05:49:26;11.05;;;0.63;;
26038;SDS011;13815;52.374;4.882;2023-08-20T05:51:52;4.20;;;0.25;;
26038;SDS011;13815;52.374;4.882;2023-08-20T05:54:17;15.43;;;0.75;;
26038;SDS011;13815;52.374;4.882;2023-08-20T05:56:43;19.92;;;1.10;;
26038;SDS011;13815;52.374;4.882;2023-08-20T05:59:08;7.82;;;0.55;;
26038;SDS011;13815;52.374;4.882;2023-08-20T06:01:34;29.88;;;1.75;;
26038;SDS011;13815;52.374;4.882;2023-08-20T06:03:59;11.82;;;0.80;;
26038;SDS011;13815;52.374;4.882;2023-08-20T06:06:25;37.63;;;2.20;;
26038;SDS011;13815;52.374;4.882;2023-08-20T06:08:51;29.38;;;1.70;;
26038;SDS011;13815;52.374;4.882;2023-08-20T06:11:17;34.17;;;2.08;;
26038;SDS011;13815;52.374;4.882;2023-08-20T06:13:43;18.35;;;1.17;;
26038;SDS011;13815;52.374;4.882;2023-08-20T06:16:08;64.13;;;4.05;;
26038;SDS011;13815;52.374;4.882;2023-08-20T06:18:34;41.95;;;2.67;;
26038;SDS011;13815;52.374;4.882;2023-08-20T06:20:59;26.75;;;1.77;;
26038;SDS011;13815;52.374;4.882;2023-08-20T06:23:24;42.75;;;2.72;;
26038;SDS011;13815;52.374;4.882;2023-08-20T06:25:50;9.90;;;0.63;;
26038;SDS011;13815;52.374;4.882;2023-08-20T06:28:18;30.30;;;1.92;;
26038;SDS011;13815;52.374;4.882;2023-08-20T06:30:44;24.73;;;1.38;;
26038;SDS011;13815;52.374;4.882;2023-08-20T06:33:10;18.63;;;1.23;;
26038;SDS011;13815;52.374;4.882;2023-08-20T06:35:36;35.10;;;2.20;;
26038;SDS011;13815;52.374;4.882;2023-08-20T06:38:07;14.40;;;0.90;;
26038;SDS011;13815;52.374;4.882;2023-08-20T06:40:33;4.80;;;0.30;;
26038;SDS011;13815;52.374;4.882;2023-08-20T06:42:58;18.75;;;1.33;;
26038;SDS011;13815;52.374;4.882;2023-08-20T06:45:24;7.65;;;0.50;;
26038;SDS011;13815;52.374;4.882;2023-08-20T06:48:10;17.88;;;1.20;;
26038;SDS011;13815;52.374;4.882;2023-08-20T06:50:35;25.15;;;1.65;;
26038;SDS011;13815;52.374;4.882;2023-08-20T06:53:00;30.58;;;1.83;;
26038;SDS011;13815;52.374;4.882;2023-08-20T06:55:26;42.70;;;2.53;;
26038;SDS011;13815;52.374;4.882;2023-08-20T06:57:54;22.52;;;1.45;;
26038;SDS011;13815;52.374;4.882;2023-08-20T07:00:20;18.98;;;1.27;;
26038;SDS011;13815;52.374;4.882;2023-08-20T07:02:46;27.77;;;1.60;;
26038;SDS011;13815;52.374;4.882;2023-08-20T07:05:12;26.75;;;1.70;;
26038;SDS011;13815;52.374;4.882;2023-08-20T07:07:38;26.85;;;1.77;;
26038;SDS011;13815;52.374;4.882;2023-08-20T07:10:04;65.60;;;4.22;;
26038;SDS011;13815;52.374;4.882;2023-08-20T07:12:30;56.03;;;3.70;;
26038;SDS011;13815;52.374;4.882;2023-08-20T07:14:57;67.43;;;4.45;;
26038;SDS011;13815;52.374;4.882;2023-08-20T07:17:22;12.80;;;0.85;;
26038;SDS011;13815;52.374;4.882;2023-08-20T07:19:50;21.67;;;1.42;;
26038;SDS011;13815;52.374;4.882;2023-08-20T07:22:16;51.45;;;3.15;;
26038;SDS011;13815;52.374;4.882;2023-08-20T07:24:41;8.70;;;0.55;;
26038;SDS011;13815;52.374;4.882;2023-08-20T07:27:07;27.27;;;1.77;;
26038;SDS011;13815;52.374;4.882;2023-08-20T07:29:37;42.88;;;2.63;;
26038;SDS011;13815;52.374;4.882;2023-08-20T07:32:03;18.98;;;1.20;;
26038;SDS011;13815;52.374;4.882;2023-08-20T07:34:33;48.92;;;2.97;;
26038;SDS011;13815;52.374;4.882;2023-08-20T07:36:59;25.65;;;1.55;;
26038;SDS011;13815;52.374;4.882;2023-08-20T07:39:25;12.90;;;0.85;;
26038;SDS011;13815;52.374;4.882;2023-08-20T07:41:51;34.95;;;2.05;;
26038;SDS011;13815;52.374;4.882;2023-08-20T07:44:16;17.23;;;1.20;;
26038;SDS011;13815;52.374;4.882;2023-08-20T07:46:48;16.85;;;1.10;;
26038;SDS011;13815;52.374;4.882;2023-08-20T07:49:13;20.77;;;1.33;;
26038;SDS011;13815;52.374;4.882;2023-08-20T07:51:41;14.05;;;0.95;;
26038;SDS011;13815;52.374;4.882;2023-08-20T07:54:06;24.90;;;1.60;;
26038;SDS011;13815;52.374;4.882;2023-08-20T07:56:32;23.10;;;1.58;;
26038;SDS011;13815;52.374;4.882;2023-08-20T07:59:00;67.95;;;4.38;;
26038;SDS011;13815;52.374;4.882;2023-08-20T08:01:25;27.40;;;1.58;;
26038;SDS011;13815;52.374;4.882;2023-08-20T08:03:51;19.00;;;1.10;;
26038;SDS011;13815;52.374;4.882;2023-08-20T08:06:17;7.53;;;0.55;;
26038;SDS011;13815;52.374;4.882;2023-08-20T08:08:43;63.53;;;3.85;;
26038;SDS011;13815;52.374;4.882;2023-08-20T08:11:11;30.30;;;1.85;;
26038;SDS011;13815;52.374;4.882;2023-08-20T08:13:37;19.35;;;1.20;;
26038;SDS011;13815;52.374;4.882;2023-08-20T08:16:02;64.63;;;3.88;;
26038;SDS011;13815;52.374;4.882;2023-08-20T08:18:28;51.75;;;3.47;;
26038;SDS011;13815;52.374;4.882;2023-08-20T08:20:53;11.52;;;0.77;;
26038;SDS011;13815;52.374;4.882;2023-08-20T08:23:18;46.58;;;2.75;;
26038;SDS011;13815;52.374;4.882;2023-08-20T08:25:44;27.80;;;1.90;;
26038;SDS011;13815;52.374;4.882;2023-08-20T08:28:09;9.52;;;0.60;;
26038;SDS011;13815;52.374;4.882;2023-08-20T08:30:35;64.13;;;4.03;;
26038;SDS011;13815;52.374;4.882;2023-08-20T08:33:01;17.95;;;1.15;;
26038;SDS011;13815;52.374;4.882;2023-08-20T08:35:26;12.45;;;0.95;;
26038;SDS011;13815;52.374;4.882;2023-08-20T08:37:52;9.80;;;0.80;;
26038;SDS011;13815;52.374;4.882;2023-08-20T08:40:17;15.68;;;1.15;;
26038;SDS011;13815;52.374;4.882;2023-08-20T08:42:43;22.98;;;1.60;;
26038;SDS011;13815;52.374;4.882;2023-08-20T08:45:13;24.75;;;1.80;;
26038;SDS011;13815;52.374;4.882;2023-08-20T08:47:56;29.23;;;2.08;;
26038;SDS011;13815;52.374;4.882;2023-08-20T08:50:26;39.90;;;2.88;;
26038;SDS011;13815;52.374;4.882;2023-08-20T08:52:52;15.75;;;1.17;;
26038;SDS011;13815;52.374;4.882;2023-08-20T08:55:18;51.20;;;3.30;;
26038;SDS011;13815;52.374;4.882;2023-08-20T08:57:44;9.38;;;0.80;;
26038;SDS011;13815;52.374;4.882;2023-08-20T09:00:09;26.27;;;1.92;;
26038;SDS011;13815;52.374;4.882;2023-08-20T09:05:56;32.88;;;2.17;;
26038;SDS011;13815;52.374;4.882;2023-08-20T09:08:28;16.77;;;1.30;;
26038;SDS011;13815;52.374;4.882;2023-08-20T09:10:57;25.92;;;1.92;;
26038;SDS011;13815;52.374;4.882;2023-08-20T09:13:25;14.20;;;1.13;;
26038;SDS011;13815;52.374;4.882;2023-08-20T09:15:58;32.70;;;2.25;;
26038;SDS011;13815;52.374;4.882;2023-08-20T09:18:23;13.48;;;1.25;;
26038;SDS011;13815;52.374;4.882;2023-08-20T09:20:49;21.02;;;2.15;;
26038;SDS011;13815;52.374;4.882;2023-08-20T09:23:15;59.97;;;4.38;;
26038;SDS011;13815;52.374;4.882;2023-08-20T09:25:41;29.10;;;2.70;;
26038;SDS011;13815;52.374;4.882;2023-08-20T09:28:07;26.27;;;2.42;;
26038;SDS011;13815;52.374;4.882;2023-08-20T09:30:33;31.15;;;2.72;;
26038;SDS011;13815;52.374;4.882;2023-08-20T09:33:02;18.48;;;2.33;;
26038;SDS011;13815;52.374;4.882;2023-08-20T09:35:42;54.38;;;4.38;;
26038;SDS011;13815;52.374;4.882;2023-08-20T09:38:24;24.08;;;4.13;;
26038;SDS011;13815;52.374;4.882;2023-08-20T09:40:51;49.75;;;6.40;;
26038;SDS011;13815;52.374;4.882;2023-08-20T09:43:18;30.70;;;9.25;;
26038;SDS011;13815;52.374;4.882;2023-08-20T09:45:45;45.00;;;14.70;;
26038;SDS011;13815;52.374;4.882;2023-08-20T09:48:18;41.20;;;16.30;;
26038;SDS011;13815;52.374;4.882;2023-08-20T09:50:49;57.90;;;18.60;;
26038;SDS011;13815;52.374;4.882;2023-08-20T09:55:52;34.90;;;19.27;;
26038;SDS011;13815;52.374;4.882;2023-08-20T09:58:18;71.53;;;21.40;;
26038;SDS011;13815;52.374;4.882;2023-08-20T10:00:51;23.27;;;18.75;;
26038;SDS011;13815;52.374;4.882;2023-08-20T10:03:19;32.83;;;20.15;;
26038;SDS011;13815;52.374;4.882;2023-08-20T10:05:46;78.45;;;23.73;;
26038;SDS011;13815;52.374;4.882;2023-08-20T10:08:12;66.45;;;22.63;;
26038;SDS011;13815;52.374;4.882;2023-08-20T10:10:40;52.30;;;22.77;;
26038;SDS011;13815;52.374;4.882;2023-08-20T10:13:06;60.85;;;22.88;;
26038;SDS011;13815;52.374;4.882;2023-08-20T10:15:32;37.15;;;20.77;;
26038;SDS011;13815;52.374;4.882;2023-08-20T10:18:01;98.90;;;25.70;;
26038;SDS011;13815;52.374;4.882;2023-08-20T10:20:29;57.53;;;22.70;;
26038;SDS011;13815;52.374;4.882;2023-08-20T10:23:01;46.35;;;22.83;;
26038;SDS011;13815;52.374;4.882;2023-08-20T10:25:28;36.40;;;21.17;;
26038;SDS011;13815;52.374;4.882;2023-08-20T10:28:10;61.60;;;23.50;;
26038;SDS011;13815;52.374;4.882;2023-08-20T10:30:36;47.17;;;22.13;;
26038;SDS011;13815;52.374;4.882;2023-08-20T10:33:01;57.75;;;22.58;;
26038;SDS011;13815;52.374;4.882;2023-08-20T10:38:12;58.05;;;23.23;;
26038;SDS011;13815;52.374;4.882;2023-08-20T10:43:27;68.47;;;23.90;;
26038;SDS011;13815;52.374;4.882;2023-08-20T10:46:02;52.83;;;24.70;;
26038;SDS011;13815;52.374;4.882;2023-08-20T10:48:28;53.38;;;25.30;;
26038;SDS011;13815;52.374;4.882;2023-08-20T10:51:08;51.10;;;24.33;;
26038;SDS011;13815;52.374;4.882;2023-08-20T10:53:39;49.13;;;23.00;;
26038;SDS011;13815;52.374;4.882;2023-08-20T10:56:09;85.88;;;25.20;;
26038;SDS011;13815;52.374;4.882;2023-08-20T10:58:43;44.42;;;22.77;;
26038;SDS011;13815;52.374;4.882;2023-08-20T11:01:16;39.30;;;21.35;;
26038;SDS011;13815;52.374;4.882;2023-08-20T11:03:47;44.45;;;21.50;;
26038;SDS011;13815;52.374;4.882;2023-08-20T11:06:14;47.15;;;23.23;;
26038;SDS011;13815;52.374;4.882;2023-08-20T11:08:39;74.90;;;24.20;;
26038;SDS011;13815;52.374;4.882;2023-08-20T11:11:06;62.53;;;23.17;;
26038;SDS011;13815;52.374;4.882;2023-08-20T11:13:32;49.47;;;22.60;;
26038;SDS011;13815;52.374;4.882;2023-08-20T11:15:58;86.50;;;24.75;;
26038;SDS011;13815;52.374;4.882;2023-08-20T11:18:24;43.40;;;21.73;;
26038;SDS011;13815;52.374;4.882;2023-08-20T11:20:50;58.22;;;22.95;;
26038;SDS011;13815;52.374;4.882;2023-08-20T11:23:25;31.70;;;20.80;;
26038;SDS011;13815;52.374;4.882;2023-08-20T11:25:51;66.78;;;24.88;;
26038;SDS011;13815;52.374;4.882;2023-08-20T11:28:17;61.33;;;23.67;;
26038;SDS011;13815;52.374;4.882;2023-08-20T11:30:42;43.85;;;23.33;;
26038;SDS011;13815;52.374;4.882;2023-08-20T11:33:08;65.82;;;24.27;;
26038;SDS011;13815;52.374;4.882;2023-08-20T11:35:34;61.50;;;24.13;;
26038;SDS011;13815;52.374;4.882;2023-08-20T11:38:00;59.30;;;26.17;;
26038;SDS011;13815;52.374;4.882;2023-08-20T11:40:36;58.53;;;27.45;;
26038;SDS011;13815;52.374;4.882;2023-08-20T11:43:01;63.45;;;27.02;;
26038;SDS011;13815;52.374;4.882;2023-08-20T11:45:29;62.05;;;27.35;;
26038;SDS011;13815;52.374;4.882;2023-08-20T11:48:00;64.07;;;26.58;;
26038;SDS011;13815;52.374;4.882;2023-08-20T11:50:25;48.53;;;25.90;;
26038;SDS011;13815;52.374;4.882;2023-08-20T11:52:53;72.63;;;26.52;;
26038;SDS011;13815;52.374;4.882;2023-08-20T11:55:22;51.90;;;26.10;;
26038;SDS011;13815;52.374;4.882;2023-08-20T11:57:51;70.45;;;27.58;;
26038;SDS011;13815;52.374;4.882;2023-08-20T12:00:27;69.32;;;28.00;;
26038;SDS011;13815;52.374;4.882;2023-08-20T12:02:55;78.25;;;28.83;;
26038;SDS011;13815;52.374;4.882;2023-08-20T12:05:27;78.95;;;29.17;;
26038;SDS011;13815;52.374;4.882;2023-08-20T12:10:28;72.10;;;28.33;;
26038;SDS011;13815;52.374;4.882;2023-08-20T12:13:03;66.43;;;28.63;;
26038;SDS011;13815;52.374;4.882;2023-08-20T12:15:28;60.30;;;26.23;;
26038;SDS011;13815;52.374;4.882;2023-08-20T12:20:23;69.95;;;30.75;;
26038;SDS011;13815;52.374;4.882;2023-08-20T12:22:49;61.90;;;27.10;;
26038;SDS011;13815;52.374;4.882;2023-08-20T12:25:15;89.05;;;29.60;;
26038;SDS011;13815;52.374;4.882;2023-08-20T12:27:41;89.53;;;31.40;;
26038;SDS011;13815;52.374;4.882;2023-08-20T12:30:06;79.22;;;28.88;;
26038;SDS011;13815;52.374;4.882;2023-08-20T12:32:32;62.80;;;26.50;;
26038;SDS011;13815;52.374;4.882;2023-08-20T12:35:03;90.93;;;29.10;;
26038;SDS011;13815;52.374;4.882;2023-08-20T12:37:32;70.63;;;26.92;;
26038;SDS011;13815;52.374;4.882;2023-08-20T12:39:57;73.70;;;28.25;;
26038;SDS011;13815;52.374;4.882;2023-08-20T12:42:23;57.97;;;27.20;;
26038;SDS011;13815;52.374;4.882;2023-08-20T12:44:48;90.05;;;30.02;;
26038;SDS011;13815;52.374;4.882;2023-08-20T12:47:14;65.68;;;27.10;;
26038;SDS011;13815;52.374;4.882;2023-08-20T12:49:40;67.93;;;28.13;;
26038;SDS011;13815;52.374;4.882;2023-08-20T12:52:05;121.05;;;31.40;;
26038;SDS011;13815;52.374;4.882;2023-08-20T12:54:31;80.85;;;28.88;;
26038;SDS011;13815;52.374;4.882;2023-08-20T12:56:56;67.28;;;27.60;;
26038;SDS011;13815;52.374;4.882;2023-08-20T12:59:21;74.80;;;27.48;;
26038;SDS011;13815;52.374;4.882;2023-08-20T13:01:47;66.03;;;26.77;;
26038;SDS011;13815;52.374;4.882;2023-08-20T13:04:12;92.28;;;30.17;;
26038;SDS011;13815;52.374;4.882;2023-08-20T13:06:38;55.25;;;27.38;;
26038;SDS011;13815;52.374;4.882;2023-08-20T13:09:04;69.15;;;26.55;;
26038;SDS011;13815;52.374;4.882;2023-08-20T13:11:31;63.83;;;27.15;;
26038;SDS011;13815;52.374;4.882;2023-08-20T13:13:57;82.70;;;28.83;;
26038;SDS011;13815;52.374;4.882;2023-08-20T13:16:23;93.35;;;30.50;;
26038;SDS011;13815;52.374;4.882;2023-08-20T13:18:49;79.22;;;29.15;;
26038;SDS011;13815;52.374;4.882;2023-08-20T13:21:14;82.95;;;28.38;;
26038;SDS011;13815;52.374;4.882;2023-08-20T13:23:43;80.75;;;28.77;;
26038;SDS011;13815;52.374;4.882;2023-08-20T13:26:09;62.20;;;29.50;;
26038;SDS011;13815;52.374;4.882;2023-08-20T13:28:34;59.92;;;26.30;;
26038;SDS011;13815;52.374;4.882;2023-08-20T13:31:00;74.97;;;28.83;;
26038;SDS011;13815;52.374;4.882;2023-08-20T13:33:25;66.53;;;27.45;;
26038;SDS011;13815;52.374;4.882;2023-08-20T13:35:51;89.13;;;30.23;;
26038;SDS011;13815;52.374;4.882;2023-08-20T13:38:17;84.40;;;27.65;;
26038;SDS011;13815;52.374;4.882;2023-08-20T13:40:47;97.38;;;28.77;;
26038;SDS011;13815;52.374;4.882;2023-08-20T13:43:12;70.15;;;26.95;;
26038;SDS011;13815;52.374;4.882;2023-08-20T13:45:38;59.25;;;27.73;;
26038;SDS011;13815;52.374;4.882;2023-08-20T13:48:06;80.20;;;29.10;;
26038;SDS011;13815;52.374;4.882;2023-08-20T13:50:32;56.35;;;26.90;;
26038;SDS011;13815;52.374;4.882;2023-08-20T13:52:58;65.05;;;28.63;;
26038;SDS011;13815;52.374;4.882;2023-08-20T13:55:23;84.70;;;28.38;;
26038;SDS011;13815;52.374;4.882;2023-08-20T13:57:49;56.65;;;27.02;;
26038;SDS011;13815;52.374;4.882;2023-08-20T14:00:17;94.07;;;29.13;;
26038;SDS011;13815;52.374;4.882;2023-08-20T14:02:42;66.82;;;26.90;;
26038;SDS011;13815;52.374;4.882;2023-08-20T14:05:08;71.07;;;27.60;;
26038;SDS011;13815;52.374;4.882;2023-08-20T14:07:34;94.43;;;28.92;;
26038;SDS011;13815;52.374;4.882;2023-08-20T14:10:00;76.78;;;28.13;;
26038;SDS011;13815;52.374;4.882;2023-08-20T14:12:25;61.17;;;27.50;;
26038;SDS011;13815;52.374;4.882;2023-08-20T14:14:51;78.05;;;27.85;;
26038;SDS011;13815;52.374;4.882;2023-08-20T14:17:16;73.78;;;29.25;;
26038;SDS011;13815;52.374;4.882;2023-08-20T14:19:42;62.45;;;27.90;;
26038;SDS011;13815;52.374;4.882;2023-08-20T14:22:07;96.78;;;29.00;;
26038;SDS011;13815;52.374;4.882;2023-08-20T14:24:33;90.82;;;28.27;;
26038;SDS011;13815;52.374;4.882;2023-08-20T14:26:58;81.97;;;27.90;;
26038;SDS011;13815;52.374;4.882;2023-08-20T14:29:24;77.32;;;27.58;;
26038;SDS011;13815;52.374;4.882;2023-08-20T14:31:49;58.70;;;26.50;;
26038;SDS011;13815;52.374;4.882;2023-08-20T14:34:15;75.32;;;29.13;;
26038;SDS011;13815;52.374;4.882;2023-08-20T14:36:40;70.43;;;29.13;;
26038;SDS011;13815;52.374;4.882;2023-08-20T14:39:05;63.10;;;28.38;;
26038;SDS011;13815;52.374;4.882;2023-08-20T14:41:31;88.35;;;29.42;;
26038;SDS011;13815;52.374;4.882;2023-08-20T14:43:56;89.07;;;31.30;;
26038;SDS011;13815;52.374;4.882;2023-08-20T14:46:22;67.78;;;28.45;;
26038;SDS011;13815;52.374;4.882;2023-08-20T14:48:47;74.68;;;27.75;;
26038;SDS011;13815;52.374;4.882;2023-08-20T14:51:13;76.43;;;27.30;;
26038;SDS011;13815;52.374;4.882;2023-08-20T14:53:38;55.70;;;26.45;;
26038;SDS011;13815;52.374;4.882;2023-08-20T14:56:04;105.63;;;30.90;;